createdAt,value
2022-09-30T00:01:43.760Z,16.37
2022-09-30T00:04:14.551Z,12.50
2022-09-30T00:06:42.437Z,15.13
2022-09-30T00:09:13.133Z,18.13
2022-09-30T00:11:41.828Z,16.67
2022-09-30T00:14:10.728Z,16.00
2022-09-30T00:16:38.986Z,13.97
2022-09-30T00:19:06.813Z,12.80
2022-09-30T00:21:35.035Z,15.47
2022-09-30T00:24:03.309Z,15.67
2022-09-30T00:26:32.669Z,15.17
2022-09-30T00:29:01.552Z,17.77
2022-09-30T00:31:30.189Z,16.60
2022-09-30T00:34:11.668Z,17.73
2022-09-30T00:36:44.814Z,14.87
2022-09-30T00:39:14.896Z,16.20
2022-09-30T00:41:44.607Z,14.50
2022-09-30T00:44:30.847Z,19.57
2022-09-30T00:46:59.642Z,16.77
2022-09-30T00:49:27.615Z,18.50
2022-09-30T00:51:57.143Z,16.70
2022-09-30T00:54:27.120Z,15.40
2022-09-30T00:56:58.750Z,19.43
2022-09-30T00:59:31.251Z,16.73
2022-09-30T01:01:59.828Z,19.03
2022-09-30T01:04:28.704Z,15.73
2022-09-30T01:06:56.529Z,17.30
2022-09-30T01:09:24.761Z,16.43
2022-09-30T01:11:54.511Z,17.90
2022-09-30T01:14:25.645Z,22.33
2022-09-30T01:17:01.316Z,20.00
2022-09-30T01:19:52.105Z,28.07
2022-09-30T01:22:36.827Z,27.93
2022-09-30T01:25:25.340Z,22.40
2022-09-30T01:28:11.986Z,18.63
2022-09-30T01:30:49.746Z,16.23
2022-09-30T01:33:31.959Z,17.03
2022-09-30T01:36:15.135Z,12.47
2022-09-30T01:38:46.795Z,10.50
2022-09-30T01:41:19.365Z,13.80
2022-09-30T01:43:50.106Z,15.70
2022-09-30T01:46:24.337Z,14.00
2022-09-30T01:48:55.236Z,10.53
2022-09-30T01:51:28.005Z,13.87
2022-09-30T01:53:59.240Z,15.37
2022-09-30T01:56:31.041Z,16.47
2022-09-30T01:59:01.771Z,16.77
2022-09-30T02:01:33.585Z,17.07
2022-09-30T02:04:04.554Z,17.33
2022-09-30T02:06:34.927Z,19.27
2022-09-30T02:09:05.487Z,17.77
2022-09-30T02:11:34.790Z,21.07
2022-09-30T02:14:03.987Z,40.33
2022-09-30T02:16:35.743Z,60.93
2022-09-30T02:19:06.964Z,22.70
2022-09-30T02:21:36.526Z,28.63
2022-09-30T02:24:06.624Z,34.00
2022-09-30T02:26:36.056Z,102.17
2022-09-30T02:29:06.834Z,55.17
2022-09-30T02:31:38.505Z,52.27
2022-09-30T02:34:08.018Z,39.23
2022-09-30T02:36:38.986Z,41.07
2022-09-30T02:39:08.033Z,93.00
2022-09-30T02:41:39.415Z,82.80
2022-09-30T02:44:07.802Z,102.67
2022-09-30T02:46:42.471Z,71.40
2022-09-30T02:49:12.806Z,38.23
2022-09-30T02:51:43.843Z,88.33
2022-09-30T02:54:16.377Z,58.70
2022-09-30T02:56:49.799Z,36.43
2022-09-30T02:59:17.669Z,62.20
2022-09-30T03:01:47.069Z,37.67
2022-09-30T03:04:17.383Z,111.93
2022-09-30T03:06:45.256Z,38.73
2022-09-30T03:09:13.363Z,64.90
2022-09-30T03:11:42.071Z,48.90
2022-09-30T03:14:17.972Z,50.30
2022-09-30T03:17:01.497Z,41.07
2022-09-30T03:19:37.165Z,79.83
2022-09-30T03:22:12.896Z,110.90
2022-09-30T03:24:49.438Z,45.17
2022-09-30T03:27:20.864Z,37.77
2022-09-30T03:29:52.425Z,34.40
2022-09-30T03:32:28.697Z,93.10
2022-09-30T03:35:03.979Z,32.53
2022-09-30T03:37:34.867Z,80.13
2022-09-30T03:40:04.791Z,92.23
2022-09-30T03:42:37.475Z,31.23
2022-09-30T03:45:10.004Z,37.43
2022-09-30T03:47:43.229Z,31.83
2022-09-30T03:50:13.659Z,34.70
2022-09-30T03:52:44.472Z,36.53
2022-09-30T03:55:12.798Z,30.93
2022-09-30T03:57:40.919Z,37.17
2022-09-30T04:00:09.706Z,41.07
2022-09-30T04:02:37.970Z,59.63
2022-09-30T04:05:06.452Z,40.60
2022-09-30T04:07:35.894Z,52.97
2022-09-30T04:10:03.840Z,29.73
2022-09-30T04:12:33.692Z,52.83
2022-09-30T04:15:01.602Z,88.17
2022-09-30T04:17:29.822Z,95.57
2022-09-30T04:19:58.103Z,36.77
2022-09-30T04:22:26.668Z,40.07
2022-09-30T04:24:56.008Z,176.47
2022-09-30T04:27:24.769Z,31.60
2022-09-30T04:29:52.451Z,42.57
2022-09-30T04:32:20.229Z,53.23
2022-09-30T04:34:48.450Z,37.17
2022-09-30T04:37:16.622Z,62.73
2022-09-30T04:39:44.564Z,60.00
2022-09-30T04:42:13.894Z,38.03
2022-09-30T04:44:41.990Z,35.67
2022-09-30T04:47:09.678Z,41.13
2022-09-30T04:49:37.433Z,134.50
2022-09-30T04:52:05.074Z,30.83
2022-09-30T04:54:32.946Z,101.83
2022-09-30T04:57:00.926Z,35.20
2022-09-30T04:59:30.279Z,39.33
2022-09-30T05:01:58.134Z,34.47
2022-09-30T05:04:26.225Z,64.63
2022-09-30T05:06:53.946Z,38.07
2022-09-30T05:09:22.298Z,42.10
2022-09-30T05:11:50.191Z,36.40
2022-09-30T05:14:18.555Z,37.70
2022-09-30T05:16:47.680Z,48.07
2022-09-30T05:19:16.078Z,35.10
2022-09-30T05:21:45.142Z,38.87
2022-09-30T05:24:13.090Z,40.27
2022-09-30T05:26:41.293Z,41.97
2022-09-30T05:29:10.524Z,57.43
2022-09-30T05:31:38.414Z,39.47
2022-09-30T05:34:07.494Z,37.60
2022-09-30T05:36:35.493Z,41.60
2022-09-30T05:39:03.387Z,24.13
2022-09-30T05:41:31.608Z,77.80
2022-09-30T05:44:01.533Z,37.30
2022-09-30T05:46:29.798Z,39.47
2022-09-30T05:48:57.550Z,33.27
2022-09-30T05:51:26.736Z,39.07
2022-09-30T05:53:54.484Z,39.87
2022-09-30T05:56:22.236Z,51.17
2022-09-30T05:58:51.486Z,39.33
2022-09-30T06:01:19.259Z,41.53
2022-09-30T06:03:48.022Z,31.50
2022-09-30T06:06:16.366Z,33.17
2022-09-30T06:08:47.025Z,41.23
2022-09-30T06:11:17.535Z,34.70
2022-09-30T06:13:45.718Z,43.00
2022-09-30T06:16:13.905Z,31.43
2022-09-30T06:18:43.485Z,34.80
2022-09-30T06:21:13.168Z,36.53
2022-09-30T06:23:41.262Z,24.80
2022-09-30T06:26:11.977Z,98.10
2022-09-30T06:28:40.126Z,42.43
2022-09-30T06:31:08.207Z,39.67
2022-09-30T06:33:36.028Z,50.30
2022-09-30T06:36:07.878Z,49.00
2022-09-30T06:38:37.335Z,62.37
2022-09-30T06:41:05.703Z,34.67
2022-09-30T06:43:35.512Z,36.40
2022-09-30T06:46:25.155Z,29.77
2022-09-30T06:49:09.259Z,21.23
2022-09-30T06:51:41.013Z,37.93
2022-09-30T06:54:09.169Z,25.47
2022-09-30T06:56:37.373Z,29.27
2022-09-30T06:59:07.199Z,32.57
2022-09-30T07:01:35.983Z,29.13
2022-09-30T07:04:09.833Z,24.00
2022-09-30T07:06:39.102Z,25.60
2022-09-30T07:09:07.463Z,20.77
2022-09-30T07:11:36.906Z,23.27
2022-09-30T07:14:06.291Z,23.13
2022-09-30T07:16:35.100Z,27.30
2022-09-30T07:19:03.781Z,24.60
2022-09-30T07:21:32.494Z,22.73
2022-09-30T07:24:01.691Z,21.10
2022-09-30T07:26:30.199Z,20.00
2022-09-30T07:28:57.906Z,19.00
2022-09-30T07:31:33.127Z,20.83
2022-09-30T07:34:02.292Z,19.00
2022-09-30T07:36:33.474Z,23.90
2022-09-30T07:39:06.570Z,22.20
2022-09-30T07:41:36.063Z,21.47
2022-09-30T07:44:06.725Z,28.83
2022-09-30T07:46:52.142Z,22.83
2022-09-30T07:49:28.982Z,22.80
2022-09-30T07:52:04.021Z,20.97
2022-09-30T07:57:46.259Z,17.90
2022-09-30T08:00:40.523Z,17.40
2022-09-30T08:03:03.933Z,16.10
2022-09-30T08:05:31.890Z,17.20
2022-09-30T08:07:59.504Z,14.40
2022-09-30T08:10:27.368Z,16.97
2022-09-30T08:12:58.046Z,19.67
2022-09-30T08:15:27.858Z,20.63
2022-09-30T08:17:55.699Z,18.57
2022-09-30T08:20:24.923Z,16.40
2022-09-30T08:22:54.434Z,13.87
2022-09-30T08:25:22.703Z,8.97
2022-09-30T08:27:50.478Z,12.80
2022-09-30T08:30:18.573Z,10.17
2022-09-30T08:32:46.682Z,10.17
2022-09-30T08:35:16.896Z,9.50
2022-09-30T08:37:46.168Z,16.40
2022-09-30T08:40:20.116Z,11.50
2022-09-30T08:42:57.536Z,9.63
2022-09-30T08:45:30.982Z,10.83
2022-09-30T08:48:04.359Z,10.43
2022-09-30T08:50:36.078Z,11.80
2022-09-30T08:53:07.299Z,15.07
2022-09-30T08:55:40.086Z,12.83
2022-09-30T08:58:10.602Z,15.50
2022-09-30T09:00:38.564Z,14.17
2022-09-30T09:03:06.337Z,13.37
2022-09-30T09:05:40.022Z,9.50
2022-09-30T09:08:15.138Z,8.57
2022-09-30T09:10:45.852Z,7.30
2022-09-30T09:13:18.817Z,7.37
2022-09-30T09:15:55.944Z,7.37
2022-09-30T09:18:35.777Z,13.23
2022-09-30T09:21:09.886Z,7.83
2022-09-30T09:23:39.689Z,10.80
2022-09-30T09:26:07.656Z,11.63
2022-09-30T09:28:37.799Z,6.67
2022-09-30T09:31:06.304Z,9.23
2022-09-30T09:33:36.558Z,6.93
2022-09-30T09:36:15.573Z,10.63
2022-09-30T09:38:56.248Z,8.13
2022-09-30T09:41:33.434Z,8.07
2022-09-30T09:44:05.699Z,6.80
2022-09-30T09:46:35.664Z,7.03
2022-09-30T09:49:23.677Z,10.00
2022-09-30T09:51:55.365Z,9.03
2022-09-30T09:54:31.250Z,7.97
2022-09-30T09:57:09.390Z,9.27
2022-09-30T09:59:37.666Z,12.90
2022-09-30T10:02:23.203Z,14.73
2022-09-30T10:05:00.075Z,16.53
2022-09-30T10:07:29.587Z,13.63
2022-09-30T10:10:08.637Z,11.53
2022-09-30T10:12:36.755Z,12.63
2022-09-30T10:15:12.278Z,8.67
2022-09-30T10:17:40.858Z,10.00
2022-09-30T10:20:10.123Z,9.57
2022-09-30T10:22:37.896Z,7.93
2022-09-30T10:25:19.120Z,9.13
2022-09-30T10:27:51.661Z,5.87
2022-09-30T10:30:37.092Z,6.30
2022-09-30T10:33:05.053Z,8.33
2022-09-30T10:35:33.282Z,7.37
2022-09-30T10:38:01.811Z,5.87
2022-09-30T10:40:31.417Z,5.00
2022-09-30T10:43:00.659Z,5.73
2022-09-30T10:45:34.086Z,8.13
2022-09-30T10:48:07.056Z,5.73
2022-09-30T10:50:34.863Z,5.60
2022-09-30T10:53:04.759Z,8.30
2022-09-30T10:55:35.743Z,8.70
2022-09-30T10:58:22.449Z,5.80
2022-09-30T11:00:51.691Z,4.83
2022-09-30T11:03:21.729Z,5.53
2022-09-30T11:05:50.343Z,5.60
2022-09-30T11:08:21.237Z,4.57
2022-09-30T11:10:54.428Z,3.73
2022-09-30T11:13:25.141Z,4.82
2022-09-30T11:15:58.263Z,3.83
2022-09-30T11:18:30.598Z,4.43
2022-09-30T11:21:01.945Z,4.83
2022-09-30T11:23:32.888Z,3.03
2022-09-30T11:26:03.834Z,3.75
2022-09-30T11:28:42.178Z,3.17
2022-09-30T11:31:17.538Z,3.00
2022-09-30T11:33:54.074Z,3.90
2022-09-30T11:36:24.909Z,3.40
2022-09-30T11:39:10.943Z,2.50
2022-09-30T11:41:42.284Z,4.45
2022-09-30T11:44:18.904Z,2.85
2022-09-30T11:47:05.161Z,3.67
2022-09-30T11:49:41.758Z,4.05
2022-09-30T11:52:12.906Z,3.58
2022-09-30T11:54:48.402Z,2.85
2022-09-30T11:57:20.857Z,5.07
2022-09-30T11:59:50.766Z,5.97
2022-09-30T12:02:26.301Z,3.70
2022-09-30T12:04:56.370Z,4.00
2022-09-30T12:07:28.426Z,3.42
2022-09-30T12:09:59.429Z,2.80
2022-09-30T12:12:28.870Z,4.40
2022-09-30T12:14:59.029Z,4.25
2022-09-30T12:17:28.511Z,5.13
2022-09-30T12:20:05.705Z,6.75
2022-09-30T12:22:38.626Z,2.40
2022-09-30T12:25:13.644Z,2.35
2022-09-30T12:27:45.647Z,4.75
2022-09-30T12:30:18.472Z,4.68
2022-09-30T12:33:13.076Z,4.25
2022-09-30T12:35:55.693Z,1.85
2022-09-30T12:38:41.554Z,4.88
2022-09-30T12:41:16.879Z,1.70
2022-09-30T12:43:55.569Z,3.03
2022-09-30T12:46:27.490Z,4.70
2022-09-30T12:48:57.421Z,3.75
2022-09-30T12:51:28.211Z,4.40
2022-09-30T12:54:03.428Z,2.65
2022-09-30T12:56:32.341Z,3.13
2022-09-30T12:59:02.229Z,2.17
2022-09-30T13:01:31.450Z,2.80
2022-09-30T13:04:17.836Z,1.92
2022-09-30T13:07:04.544Z,1.60
2022-09-30T13:09:33.070Z,2.10
2022-09-30T13:12:17.977Z,2.70
2022-09-30T13:14:47.046Z,3.28
2022-09-30T13:17:36.244Z,4.07
2022-09-30T13:20:24.139Z,2.97
2022-09-30T13:22:56.315Z,4.65
2022-09-30T13:25:23.998Z,3.65
2022-09-30T13:27:54.065Z,2.92
2022-09-30T13:30:37.487Z,3.47
2022-09-30T13:33:23.930Z,3.25
2022-09-30T13:35:56.191Z,7.57
2022-09-30T13:38:34.402Z,4.15
2022-09-30T13:41:06.685Z,1.92
2022-09-30T13:43:38.281Z,3.72
2022-09-30T13:46:09.607Z,3.60
2022-09-30T13:48:40.461Z,2.42
2022-09-30T13:51:12.333Z,4.43
2022-09-30T13:53:41.839Z,1.75
2022-09-30T13:56:11.227Z,7.03
2022-09-30T13:58:46.067Z,6.43
2022-09-30T14:01:22.953Z,4.43
2022-09-30T14:04:00.919Z,8.35
2022-09-30T14:06:38.380Z,3.83
2022-09-30T14:09:16.437Z,2.05
2022-09-30T14:11:55.298Z,2.17
2022-09-30T14:14:39.268Z,2.53
2022-09-30T14:17:16.537Z,2.65
2022-09-30T14:19:59.753Z,1.98
2022-09-30T14:22:30.277Z,2.17
2022-09-30T14:24:58.103Z,2.15
2022-09-30T14:27:38.241Z,4.68
2022-09-30T14:30:07.900Z,1.50
2022-09-30T14:32:41.012Z,2.40
2022-09-30T14:38:07.441Z,2.70
2022-09-30T14:40:36.809Z,2.13
2022-09-30T14:43:06.077Z,2.20
2022-09-30T14:45:35.918Z,1.52
2022-09-30T14:48:07.327Z,3.60
2022-09-30T14:50:37.803Z,3.45
2022-09-30T14:53:07.621Z,3.15
2022-09-30T14:55:38.207Z,2.78
2022-09-30T14:58:28.700Z,3.35
2022-09-30T15:01:01.796Z,2.00
2022-09-30T15:03:31.890Z,9.68
2022-09-30T15:06:00.828Z,2.47
2022-09-30T15:08:29.412Z,5.20
2022-09-30T15:10:57.504Z,3.75
2022-09-30T15:13:26.269Z,3.40
2022-09-30T15:15:54.148Z,2.78
2022-09-30T15:18:37.237Z,7.70
2022-09-30T15:21:10.398Z,3.45
2022-09-30T15:23:39.470Z,4.15
2022-09-30T15:26:07.631Z,4.15
2022-09-30T15:28:40.002Z,4.90
2022-09-30T15:31:08.213Z,2.55
2022-09-30T15:33:36.174Z,3.05
2022-09-30T15:36:06.052Z,6.22
2022-09-30T15:38:35.824Z,6.28
2022-09-30T15:41:05.679Z,3.83
2022-09-30T15:43:35.852Z,2.60
2022-09-30T15:46:22.585Z,2.30
2022-09-30T15:48:50.579Z,5.10
2022-09-30T15:51:30.251Z,5.72
2022-09-30T15:54:00.453Z,2.63
2022-09-30T15:56:32.986Z,2.03
2022-09-30T15:59:01.460Z,2.70
2022-09-30T16:01:34.493Z,8.05
2022-09-30T16:04:03.676Z,2.92
2022-09-30T16:06:35.504Z,3.00
2022-09-30T16:09:08.627Z,3.17
2022-09-30T16:11:37.559Z,2.30
2022-09-30T16:14:06.893Z,3.95
2022-09-30T16:16:36.130Z,2.08
2022-09-30T16:19:04.704Z,2.75
2022-09-30T16:21:43.962Z,3.43
2022-09-30T16:24:32.271Z,4.93
2022-09-30T16:27:16.802Z,4.03
2022-09-30T16:29:46.877Z,2.88
2022-09-30T16:32:15.233Z,6.13
2022-09-30T16:34:43.258Z,8.10
2022-09-30T16:37:12.599Z,6.20
2022-09-30T16:39:41.147Z,4.20
2022-09-30T16:42:13.904Z,5.57
2022-09-30T16:44:44.882Z,5.43
2022-09-30T16:47:19.434Z,6.17
2022-09-30T16:49:47.400Z,5.60
2022-09-30T16:52:15.884Z,10.47
2022-09-30T16:54:44.095Z,6.37
2022-09-30T16:57:16.051Z,6.03
2022-09-30T16:59:44.340Z,5.57
2022-09-30T17:02:14.603Z,4.20
2022-09-30T17:04:43.348Z,2.97
2022-09-30T17:07:14.553Z,4.23
2022-09-30T17:09:43.397Z,7.03
2022-09-30T17:12:12.269Z,6.93
2022-09-30T17:14:43.489Z,5.57
2022-09-30T17:17:13.702Z,3.00
2022-09-30T17:19:41.981Z,4.10
2022-09-30T17:22:09.671Z,5.83
2022-09-30T17:24:37.651Z,6.87
2022-09-30T17:27:05.467Z,4.13
2022-09-30T17:29:33.296Z,7.60
2022-09-30T17:32:02.868Z,3.47
2022-09-30T17:34:30.719Z,5.27
2022-09-30T17:37:00.089Z,4.10
2022-09-30T17:39:28.448Z,5.90
2022-09-30T17:42:13.466Z,5.93
2022-09-30T17:44:41.738Z,9.73
2022-09-30T17:47:10.845Z,4.97
2022-09-30T17:49:38.524Z,4.77
2022-09-30T17:52:06.329Z,5.50
2022-09-30T17:54:35.102Z,4.03
2022-09-30T17:57:02.696Z,5.40
2022-09-30T17:59:30.451Z,4.73
2022-09-30T18:01:58.598Z,9.03
2022-09-30T18:04:28.656Z,6.97
2022-09-30T18:06:57.113Z,5.43
2022-09-30T18:09:24.971Z,8.23
2022-09-30T18:11:54.489Z,5.87
2022-09-30T18:14:22.233Z,4.70
2022-09-30T18:16:50.016Z,3.83
2022-09-30T18:19:18.157Z,5.63
2022-09-30T18:21:47.703Z,6.20
2022-09-30T18:24:15.730Z,4.37
2022-09-30T18:26:43.413Z,6.37
2022-09-30T18:29:11.420Z,5.33
2022-09-30T18:31:39.724Z,7.53
2022-09-30T18:34:07.892Z,5.47
2022-09-30T18:36:37.465Z,5.07
2022-09-30T18:39:06.883Z,6.80
2022-09-30T18:41:36.770Z,4.90
2022-09-30T18:44:05.817Z,5.73
2022-09-30T18:46:33.828Z,9.03
2022-09-30T18:49:01.645Z,6.20
2022-09-30T18:51:30.367Z,4.17
2022-09-30T18:53:59.135Z,11.00
2022-09-30T18:56:31.614Z,5.90
2022-09-30T18:58:59.510Z,5.53
2022-09-30T19:01:27.987Z,7.30
2022-09-30T19:03:56.092Z,8.13
2022-09-30T19:06:23.906Z,6.07
2022-09-30T19:08:51.653Z,5.47
2022-09-30T19:11:19.778Z,4.10
2022-09-30T19:13:49.846Z,4.80
2022-09-30T19:16:21.328Z,5.73
2022-09-30T19:18:49.201Z,4.10
2022-09-30T19:21:20.327Z,4.43
2022-09-30T19:23:48.609Z,4.17
2022-09-30T19:26:16.885Z,5.80
2022-09-30T19:28:44.638Z,11.60
2022-09-30T19:31:15.573Z,7.90
2022-09-30T19:33:54.730Z,5.67
2022-09-30T19:36:24.844Z,5.73
2022-09-30T19:39:03.104Z,5.53
2022-09-30T19:41:36.888Z,7.03
2022-09-30T19:44:04.999Z,7.60
2022-09-30T19:46:34.444Z,4.10
2022-09-30T19:49:02.145Z,5.97
2022-09-30T19:51:30.997Z,8.33
2022-09-30T19:54:06.210Z,8.93
2022-09-30T19:56:35.440Z,7.20
2022-09-30T19:59:03.280Z,7.23
2022-09-30T20:01:34.458Z,3.20
2022-09-30T20:04:05.549Z,8.97
2022-09-30T20:06:34.849Z,4.07
2022-09-30T20:09:04.069Z,6.53
2022-09-30T20:11:33.848Z,7.57
2022-09-30T20:14:20.078Z,8.03
2022-09-30T20:16:48.566Z,9.33
2022-09-30T20:19:18.330Z,8.47
2022-09-30T20:21:46.679Z,9.37
2022-09-30T20:24:15.508Z,8.10
2022-09-30T20:26:43.612Z,7.47
2022-09-30T20:29:12.008Z,9.83
2022-09-30T20:31:40.949Z,5.27
2022-09-30T20:34:10.401Z,6.57
2022-09-30T20:36:40.719Z,7.10
2022-09-30T20:39:10.167Z,7.80
2022-09-30T20:41:38.695Z,5.77
2022-09-30T20:44:08.665Z,6.43
2022-09-30T20:46:37.241Z,5.37
2022-09-30T20:49:05.676Z,5.87
2022-09-30T20:51:33.778Z,7.07
2022-09-30T20:54:03.193Z,4.73
2022-09-30T20:56:49.593Z,7.83
2022-09-30T20:59:19.185Z,7.40
2022-09-30T21:01:47.004Z,7.37
2022-09-30T21:04:14.848Z,8.57
2022-09-30T21:06:43.471Z,4.27
2022-09-30T21:09:14.031Z,4.43
2022-09-30T21:11:42.526Z,8.73
2022-09-30T21:14:11.234Z,5.23
2022-09-30T21:16:38.940Z,5.37
2022-09-30T21:19:06.657Z,9.00
2022-09-30T21:21:34.986Z,4.03
2022-09-30T21:24:03.258Z,5.57
2022-09-30T21:26:32.438Z,7.10
2022-09-30T21:29:00.193Z,4.00
2022-09-30T21:31:28.422Z,5.67
2022-09-30T21:33:56.873Z,4.77
2022-09-30T21:36:25.125Z,4.83
2022-09-30T21:38:53.676Z,4.90
2022-09-30T21:41:22.765Z,7.77
2022-09-30T21:43:52.203Z,2.53
2022-09-30T21:46:20.337Z,4.90
2022-09-30T21:48:48.032Z,3.83
2022-09-30T21:51:16.268Z,7.67
2022-09-30T21:53:44.300Z,5.97
2022-09-30T21:56:12.533Z,4.67
2022-09-30T21:58:40.908Z,4.03
2022-09-30T22:01:11.162Z,12.00
2022-09-30T22:03:39.428Z,8.07
2022-09-30T22:06:08.517Z,8.23
2022-09-30T22:08:40.235Z,7.57
2022-09-30T22:11:09.214Z,7.17
2022-09-30T22:13:38.425Z,5.50
2022-09-30T22:16:07.495Z,8.30
2022-09-30T22:18:37.157Z,6.63
2022-09-30T22:21:05.446Z,10.77
2022-09-30T22:23:33.331Z,8.50
2022-09-30T22:26:06.837Z,9.57
2022-09-30T22:28:36.278Z,12.03
2022-09-30T22:31:14.049Z,6.73
2022-09-30T22:34:00.976Z,7.07
2022-09-30T22:36:46.585Z,6.93
2022-09-30T22:39:15.567Z,7.53
2022-09-30T22:41:43.859Z,6.50
2022-09-30T22:44:11.770Z,6.80
2022-09-30T22:46:39.953Z,8.77
2022-09-30T22:49:09.786Z,9.10
2022-09-30T22:51:37.744Z,6.80
2022-09-30T22:54:05.966Z,7.70
2022-09-30T22:56:34.132Z,6.97
2022-09-30T22:59:01.980Z,6.37
2022-09-30T23:01:31.748Z,9.13
2022-09-30T23:03:59.967Z,8.33
2022-09-30T23:06:29.232Z,5.87
2022-09-30T23:08:57.069Z,5.17
2022-09-30T23:11:24.935Z,6.87
2022-09-30T23:13:58.847Z,6.63
2022-09-30T23:16:27.218Z,8.07
2022-09-30T23:18:55.278Z,11.10
2022-09-30T23:21:23.129Z,8.33
2022-09-30T23:23:52.600Z,6.50
2022-09-30T23:26:21.136Z,10.67
2022-09-30T23:28:49.383Z,8.53
2022-09-30T23:31:18.517Z,7.80
2022-09-30T23:33:48.771Z,9.07
2022-09-30T23:36:17.106Z,10.57
2022-09-30T23:38:45.665Z,7.93
2022-09-30T23:41:15.502Z,9.20
2022-09-30T23:43:48.717Z,10.00
2022-09-30T23:46:17.389Z,10.53
2022-09-30T23:48:46.022Z,10.80
2022-09-30T23:51:14.265Z,8.57
2022-09-30T23:53:43.513Z,10.57
2022-09-30T23:56:12.509Z,11.43
2022-09-30T23:58:41.624Z,9.53
